sensor_id;sensor_type;location;lat;lon;timestamp;P1;durP1;ratioP1;P2;durP2;ratioP2
49502;SDS011;35409;48.776;9.204;2022-12-11T00:01:12;34.42;;;18.48;;
49502;SDS011;35409;48.776;9.204;2022-12-11T00:03:43;38.85;;;19.92;;
49502;SDS011;35409;48.776;9.204;2022-12-11T00:06:11;35.33;;;19.85;;
49502;SDS011;35409;48.776;9.204;2022-12-11T00:08:38;38.92;;;21.05;;
49502;SDS011;35409;48.776;9.204;2022-12-11T00:11:07;38.95;;;21.45;;
49502;SDS011;35409;48.776;9.204;2022-12-11T00:13:33;36.72;;;19.73;;
49502;SDS011;35409;48.776;9.204;2022-12-11T00:15:59;41.80;;;20.15;;
49502;SDS011;35409;48.776;9.204;2022-12-11T00:18:25;40.72;;;21.05;;
49502;SDS011;35409;48.776;9.204;2022-12-11T00:20:51;38.67;;;19.98;;
49502;SDS011;35409;48.776;9.204;2022-12-11T00:23:16;41.60;;;20.45;;
49502;SDS011;35409;48.776;9.204;2022-12-11T00:25:42;38.25;;;20.25;;
49502;SDS011;35409;48.776;9.204;2022-12-11T00:28:14;38.45;;;20.90;;
49502;SDS011;35409;48.776;9.204;2022-12-11T00:30:42;46.72;;;23.08;;
49502;SDS011;35409;48.776;9.204;2022-12-11T00:33:09;40.13;;;22.02;;
49502;SDS011;35409;48.776;9.204;2022-12-11T00:35:43;44.10;;;23.52;;
49502;SDS011;35409;48.776;9.204;2022-12-11T00:38:16;41.22;;;22.83;;
49502;SDS011;35409;48.776;9.204;2022-12-11T00:40:44;40.90;;;22.20;;
49502;SDS011;35409;48.776;9.204;2022-12-11T00:43:10;40.85;;;21.73;;
49502;SDS011;35409;48.776;9.204;2022-12-11T00:45:36;40.53;;;20.42;;
49502;SDS011;35409;48.776;9.204;2022-12-11T00:48:04;40.30;;;20.80;;
49502;SDS011;35409;48.776;9.204;2022-12-11T00:50:30;41.30;;;20.45;;
49502;SDS011;35409;48.776;9.204;2022-12-11T00:52:56;42.80;;;21.08;;
49502;SDS011;35409;48.776;9.204;2022-12-11T00:55:21;40.50;;;21.27;;
49502;SDS011;35409;48.776;9.204;2022-12-11T00:57:50;38.20;;;20.33;;
49502;SDS011;35409;48.776;9.204;2022-12-11T01:00:15;33.17;;;18.02;;
49502;SDS011;35409;48.776;9.204;2022-12-11T01:02:41;38.13;;;20.23;;
49502;SDS011;35409;48.776;9.204;2022-12-11T01:05:08;35.33;;;20.50;;
49502;SDS011;35409;48.776;9.204;2022-12-11T01:07:34;36.55;;;21.33;;
49502;SDS011;35409;48.776;9.204;2022-12-11T01:10:03;39.50;;;21.85;;
49502;SDS011;35409;48.776;9.204;2022-12-11T01:15:25;37.08;;;21.17;;
49502;SDS011;35409;48.776;9.204;2022-12-11T01:17:53;41.88;;;21.80;;
49502;SDS011;35409;48.776;9.204;2022-12-11T01:20:19;41.55;;;21.75;;
49502;SDS011;35409;48.776;9.204;2022-12-11T01:22:46;37.20;;;21.30;;
49502;SDS011;35409;48.776;9.204;2022-12-11T01:25:12;40.13;;;22.52;;
49502;SDS011;35409;48.776;9.204;2022-12-11T01:27:38;41.40;;;23.35;;
49502;SDS011;35409;48.776;9.204;2022-12-11T01:30:04;43.55;;;23.92;;
49502;SDS011;35409;48.776;9.204;2022-12-11T01:32:31;46.20;;;24.02;;
49502;SDS011;35409;48.776;9.204;2022-12-11T01:34:58;48.28;;;25.88;;
49502;SDS011;35409;48.776;9.204;2022-12-11T01:37:23;44.60;;;24.38;;
49502;SDS011;35409;48.776;9.204;2022-12-11T01:39:49;45.20;;;25.70;;
49502;SDS011;35409;48.776;9.204;2022-12-11T01:42:16;41.80;;;23.63;;
49502;SDS011;35409;48.776;9.204;2022-12-11T01:47:09;44.53;;;24.08;;
49502;SDS011;35409;48.776;9.204;2022-12-11T01:49:35;42.65;;;22.73;;
49502;SDS011;35409;48.776;9.204;2022-12-11T01:52:18;48.08;;;24.73;;
49502;SDS011;35409;48.776;9.204;2022-12-11T01:54:46;39.95;;;22.25;;
49502;SDS011;35409;48.776;9.204;2022-12-11T01:57:12;38.55;;;21.73;;
49502;SDS011;35409;48.776;9.204;2022-12-11T01:59:40;41.28;;;23.52;;
49502;SDS011;35409;48.776;9.204;2022-12-11T02:02:19;41.88;;;23.15;;
49502;SDS011;35409;48.776;9.204;2022-12-11T02:04:48;42.00;;;23.08;;
49502;SDS011;35409;48.776;9.204;2022-12-11T02:07:14;42.90;;;22.40;;
49502;SDS011;35409;48.776;9.204;2022-12-11T02:09:41;39.00;;;21.70;;
49502;SDS011;35409;48.776;9.204;2022-12-11T02:14:52;39.00;;;20.90;;
49502;SDS011;35409;48.776;9.204;2022-12-11T02:20:12;42.75;;;22.30;;
49502;SDS011;35409;48.776;9.204;2022-12-11T02:25:25;38.35;;;20.80;;
49502;SDS011;35409;48.776;9.204;2022-12-11T02:31:03;36.80;;;19.65;;
49502;SDS011;35409;48.776;9.204;2022-12-11T02:33:42;30.80;;;17.13;;
49502;SDS011;35409;48.776;9.204;2022-12-11T02:36:22;29.80;;;16.13;;
49502;SDS011;35409;48.776;9.204;2022-12-11T02:38:50;27.10;;;15.52;;
49502;SDS011;35409;48.776;9.204;2022-12-11T02:41:19;29.80;;;16.23;;
49502;SDS011;35409;48.776;9.204;2022-12-11T02:43:46;22.83;;;13.93;;
49502;SDS011;35409;48.776;9.204;2022-12-11T02:46:13;25.20;;;14.15;;
49502;SDS011;35409;48.776;9.204;2022-12-11T02:48:41;17.80;;;10.82;;
49502;SDS011;35409;48.776;9.204;2022-12-11T02:51:09;16.08;;;9.82;;
49502;SDS011;35409;48.776;9.204;2022-12-11T02:53:38;17.40;;;10.73;;
49502;SDS011;35409;48.776;9.204;2022-12-11T02:58:37;19.10;;;11.65;;
49502;SDS011;35409;48.776;9.204;2022-12-11T03:01:10;20.38;;;11.23;;
49502;SDS011;35409;48.776;9.204;2022-12-11T03:03:36;19.17;;;11.07;;
49502;SDS011;35409;48.776;9.204;2022-12-11T03:06:02;20.13;;;11.70;;
49502;SDS011;35409;48.776;9.204;2022-12-11T03:08:28;21.98;;;12.68;;
49502;SDS011;35409;48.776;9.204;2022-12-11T03:10:53;24.60;;;13.38;;
49502;SDS011;35409;48.776;9.204;2022-12-11T03:13:19;24.88;;;12.93;;
49502;SDS011;35409;48.776;9.204;2022-12-11T03:21:43;22.48;;;11.98;;
49502;SDS011;35409;48.776;9.204;2022-12-11T03:24:20;22.98;;;12.88;;
49502;SDS011;35409;48.776;9.204;2022-12-11T03:26:53;21.52;;;12.90;;
49502;SDS011;35409;48.776;9.204;2022-12-11T03:29:24;24.33;;;13.35;;
49502;SDS011;35409;48.776;9.204;2022-12-11T03:31:56;22.58;;;13.70;;
49502;SDS011;35409;48.776;9.204;2022-12-11T03:34:33;21.15;;;12.43;;
49502;SDS011;35409;48.776;9.204;2022-12-11T03:37:31;24.00;;;13.35;;
49502;SDS011;35409;48.776;9.204;2022-12-11T03:40:02;27.58;;;14.65;;
49502;SDS011;35409;48.776;9.204;2022-12-11T03:42:31;24.63;;;13.48;;
49502;SDS011;35409;48.776;9.204;2022-12-11T03:44:58;23.23;;;13.18;;
49502;SDS011;35409;48.776;9.204;2022-12-11T03:47:26;24.63;;;14.48;;
49502;SDS011;35409;48.776;9.204;2022-12-11T03:49:54;27.45;;;15.10;;
49502;SDS011;35409;48.776;9.204;2022-12-11T03:52:22;25.33;;;14.50;;
49502;SDS011;35409;48.776;9.204;2022-12-11T03:54:51;25.77;;;14.05;;
49502;SDS011;35409;48.776;9.204;2022-12-11T03:57:19;23.40;;;14.60;;
49502;SDS011;35409;48.776;9.204;2022-12-11T03:59:48;27.48;;;14.73;;
49502;SDS011;35409;48.776;9.204;2022-12-11T04:02:14;25.42;;;14.95;;
49502;SDS011;35409;48.776;9.204;2022-12-11T04:04:40;26.17;;;14.93;;
49502;SDS011;35409;48.776;9.204;2022-12-11T04:07:07;23.45;;;13.85;;
49502;SDS011;35409;48.776;9.204;2022-12-11T04:09:33;26.73;;;14.85;;
49502;SDS011;35409;48.776;9.204;2022-12-11T04:11:59;27.73;;;15.27;;
49502;SDS011;35409;48.776;9.204;2022-12-11T04:14:24;29.27;;;15.95;;
49502;SDS011;35409;48.776;9.204;2022-12-11T04:17:09;31.00;;;16.88;;
49502;SDS011;35409;48.776;9.204;2022-12-11T04:19:34;28.88;;;15.73;;
49502;SDS011;35409;48.776;9.204;2022-12-11T04:22:18;28.90;;;16.38;;
49502;SDS011;35409;48.776;9.204;2022-12-11T04:25:04;26.05;;;14.25;;
49502;SDS011;35409;48.776;9.204;2022-12-11T04:27:31;25.77;;;14.25;;
49502;SDS011;35409;48.776;9.204;2022-12-11T04:30:17;24.55;;;13.50;;
49502;SDS011;35409;48.776;9.204;2022-12-11T04:32:47;22.40;;;13.68;;
49502;SDS011;35409;48.776;9.204;2022-12-11T04:35:13;23.63;;;12.82;;
49502;SDS011;35409;48.776;9.204;2022-12-11T04:37:40;21.88;;;12.88;;
49502;SDS011;35409;48.776;9.204;2022-12-11T04:40:07;21.95;;;12.35;;
49502;SDS011;35409;48.776;9.204;2022-12-11T04:42:35;21.65;;;12.55;;
49502;SDS011;35409;48.776;9.204;2022-12-11T04:45:01;22.92;;;12.52;;
49502;SDS011;35409;48.776;9.204;2022-12-11T04:47:27;23.15;;;13.15;;
49502;SDS011;35409;48.776;9.204;2022-12-11T04:49:53;22.35;;;12.68;;
49502;SDS011;35409;48.776;9.204;2022-12-11T04:52:18;21.20;;;12.27;;
49502;SDS011;35409;48.776;9.204;2022-12-11T04:54:44;20.52;;;11.93;;
49502;SDS011;35409;48.776;9.204;2022-12-11T04:57:10;23.02;;;11.85;;
49502;SDS011;35409;48.776;9.204;2022-12-11T04:59:36;26.10;;;12.32;;
49502;SDS011;35409;48.776;9.204;2022-12-11T05:02:02;19.83;;;11.48;;
49502;SDS011;35409;48.776;9.204;2022-12-11T05:04:31;21.75;;;11.98;;
49502;SDS011;35409;48.776;9.204;2022-12-11T05:09:24;23.08;;;10.60;;
49502;SDS011;35409;48.776;9.204;2022-12-11T05:11:50;19.63;;;11.55;;
49502;SDS011;35409;48.776;9.204;2022-12-11T05:14:16;19.60;;;11.02;;
49502;SDS011;35409;48.776;9.204;2022-12-11T05:16:42;19.17;;;11.43;;
49502;SDS011;35409;48.776;9.204;2022-12-11T05:19:07;19.30;;;10.73;;
49502;SDS011;35409;48.776;9.204;2022-12-11T05:21:33;19.52;;;11.45;;
49502;SDS011;35409;48.776;9.204;2022-12-11T05:23:59;17.10;;;9.98;;
49502;SDS011;35409;48.776;9.204;2022-12-11T05:26:24;19.20;;;10.60;;
49502;SDS011;35409;48.776;9.204;2022-12-11T05:28:51;19.67;;;11.15;;
49502;SDS011;35409;48.776;9.204;2022-12-11T05:31:19;19.25;;;11.43;;
49502;SDS011;35409;48.776;9.204;2022-12-11T05:33:49;19.40;;;10.77;;
49502;SDS011;35409;48.776;9.204;2022-12-11T05:36:20;23.30;;;11.85;;
49502;SDS011;35409;48.776;9.204;2022-12-11T05:38:50;23.17;;;12.40;;
49502;SDS011;35409;48.776;9.204;2022-12-11T05:41:17;20.77;;;12.20;;
49502;SDS011;35409;48.776;9.204;2022-12-11T05:43:45;24.60;;;12.23;;
49502;SDS011;35409;48.776;9.204;2022-12-11T05:46:21;22.50;;;11.75;;
49502;SDS011;35409;48.776;9.204;2022-12-11T05:48:49;21.77;;;12.82;;
49502;SDS011;35409;48.776;9.204;2022-12-11T05:51:16;24.02;;;13.57;;
49502;SDS011;35409;48.776;9.204;2022-12-11T05:53:43;24.75;;;12.85;;
49502;SDS011;35409;48.776;9.204;2022-12-11T05:56:10;23.35;;;12.90;;
49502;SDS011;35409;48.776;9.204;2022-12-11T05:58:41;24.45;;;13.35;;
49502;SDS011;35409;48.776;9.204;2022-12-11T06:01:12;23.38;;;12.50;;
49502;SDS011;35409;48.776;9.204;2022-12-11T06:03:40;23.67;;;12.40;;
49502;SDS011;35409;48.776;9.204;2022-12-11T06:06:06;25.58;;;13.75;;
49502;SDS011;35409;48.776;9.204;2022-12-11T06:08:33;25.38;;;14.35;;
49502;SDS011;35409;48.776;9.204;2022-12-11T06:10:59;25.13;;;13.55;;
49502;SDS011;35409;48.776;9.204;2022-12-11T06:13:24;27.92;;;14.77;;
49502;SDS011;35409;48.776;9.204;2022-12-11T06:15:50;29.30;;;15.38;;
49502;SDS011;35409;48.776;9.204;2022-12-11T06:18:16;28.83;;;15.65;;
49502;SDS011;35409;48.776;9.204;2022-12-11T06:20:41;29.38;;;15.80;;
49502;SDS011;35409;48.776;9.204;2022-12-11T06:23:07;26.50;;;14.93;;
49502;SDS011;35409;48.776;9.204;2022-12-11T06:25:33;30.88;;;16.35;;
49502;SDS011;35409;48.776;9.204;2022-12-11T06:27:59;32.80;;;16.85;;
49502;SDS011;35409;48.776;9.204;2022-12-11T06:30:24;29.05;;;16.08;;
49502;SDS011;35409;48.776;9.204;2022-12-11T06:32:50;27.05;;;14.88;;
49502;SDS011;35409;48.776;9.204;2022-12-11T06:35:16;30.98;;;14.55;;
49502;SDS011;35409;48.776;9.204;2022-12-11T06:37:41;27.13;;;14.02;;
49502;SDS011;35409;48.776;9.204;2022-12-11T06:40:07;27.80;;;14.82;;
49502;SDS011;35409;48.776;9.204;2022-12-11T06:42:34;25.52;;;13.80;;
49502;SDS011;35409;48.776;9.204;2022-12-11T06:45:00;26.38;;;14.45;;
49502;SDS011;35409;48.776;9.204;2022-12-11T06:47:26;27.60;;;14.50;;
49502;SDS011;35409;48.776;9.204;2022-12-11T06:49:55;34.20;;;15.75;;
49502;SDS011;35409;48.776;9.204;2022-12-11T06:52:22;28.98;;;15.68;;
49502;SDS011;35409;48.776;9.204;2022-12-11T06:54:49;27.17;;;14.68;;
49502;SDS011;35409;48.776;9.204;2022-12-11T06:57:15;29.33;;;15.27;;
49502;SDS011;35409;48.776;9.204;2022-12-11T06:59:41;30.08;;;16.30;;
49502;SDS011;35409;48.776;9.204;2022-12-11T07:02:10;35.97;;;17.67;;
49502;SDS011;35409;48.776;9.204;2022-12-11T07:04:38;35.47;;;16.77;;
49502;SDS011;35409;48.776;9.204;2022-12-11T07:07:04;33.80;;;17.10;;
49502;SDS011;35409;48.776;9.204;2022-12-11T07:09:29;32.88;;;17.42;;
49502;SDS011;35409;48.776;9.204;2022-12-11T07:11:55;34.45;;;18.15;;
49502;SDS011;35409;48.776;9.204;2022-12-11T07:14:21;33.05;;;16.90;;
49502;SDS011;35409;48.776;9.204;2022-12-11T07:16:46;32.38;;;17.25;;
49502;SDS011;35409;48.776;9.204;2022-12-11T07:19:12;30.52;;;16.55;;
49502;SDS011;35409;48.776;9.204;2022-12-11T07:21:38;31.08;;;16.33;;
49502;SDS011;35409;48.776;9.204;2022-12-11T07:24:03;36.10;;;17.50;;
49502;SDS011;35409;48.776;9.204;2022-12-11T07:26:29;33.85;;;18.27;;
49502;SDS011;35409;48.776;9.204;2022-12-11T07:28:55;36.63;;;19.48;;
49502;SDS011;35409;48.776;9.204;2022-12-11T07:31:22;33.80;;;17.85;;
49502;SDS011;35409;48.776;9.204;2022-12-11T07:33:53;37.70;;;19.15;;
49502;SDS011;35409;48.776;9.204;2022-12-11T07:36:20;34.47;;;19.00;;
49502;SDS011;35409;48.776;9.204;2022-12-11T07:38:45;34.15;;;18.38;;
49502;SDS011;35409;48.776;9.204;2022-12-11T07:41:11;38.08;;;19.08;;
49502;SDS011;35409;48.776;9.204;2022-12-11T07:43:39;33.45;;;17.27;;
49502;SDS011;35409;48.776;9.204;2022-12-11T07:46:10;36.60;;;18.92;;
49502;SDS011;35409;48.776;9.204;2022-12-11T07:48:39;39.00;;;19.85;;
49502;SDS011;35409;48.776;9.204;2022-12-11T07:53:35;35.25;;;19.27;;
49502;SDS011;35409;48.776;9.204;2022-12-11T07:56:00;37.90;;;19.00;;
49502;SDS011;35409;48.776;9.204;2022-12-11T07:58:26;36.03;;;19.38;;
49502;SDS011;35409;48.776;9.204;2022-12-11T08:00:52;35.03;;;17.98;;
49502;SDS011;35409;48.776;9.204;2022-12-11T08:03:17;34.75;;;18.63;;
49502;SDS011;35409;48.776;9.204;2022-12-11T08:05:49;32.50;;;16.55;;
49502;SDS011;35409;48.776;9.204;2022-12-11T08:08:16;32.17;;;18.08;;
49502;SDS011;35409;48.776;9.204;2022-12-11T08:10:42;33.75;;;17.88;;
49502;SDS011;35409;48.776;9.204;2022-12-11T08:13:08;30.75;;;17.38;;
49502;SDS011;35409;48.776;9.204;2022-12-11T08:15:34;31.33;;;17.40;;
49502;SDS011;35409;48.776;9.204;2022-12-11T08:17:59;33.47;;;17.25;;
49502;SDS011;35409;48.776;9.204;2022-12-11T08:20:25;30.08;;;15.73;;
49502;SDS011;35409;48.776;9.204;2022-12-11T08:22:51;28.45;;;15.40;;
49502;SDS011;35409;48.776;9.204;2022-12-11T08:25:16;27.63;;;15.27;;
49502;SDS011;35409;48.776;9.204;2022-12-11T08:27:42;28.15;;;14.38;;
49502;SDS011;35409;48.776;9.204;2022-12-11T08:30:08;28.52;;;14.98;;
49502;SDS011;35409;48.776;9.204;2022-12-11T08:32:34;26.67;;;13.65;;
49502;SDS011;35409;48.776;9.204;2022-12-11T08:34:59;29.08;;;15.18;;
49502;SDS011;35409;48.776;9.204;2022-12-11T08:37:25;28.63;;;14.90;;
49502;SDS011;35409;48.776;9.204;2022-12-11T08:39:51;27.65;;;15.10;;
49502;SDS011;35409;48.776;9.204;2022-12-11T08:42:16;23.17;;;13.68;;
49502;SDS011;35409;48.776;9.204;2022-12-11T08:44:42;27.27;;;15.55;;
49502;SDS011;35409;48.776;9.204;2022-12-11T08:47:08;29.80;;;15.02;;
49502;SDS011;35409;48.776;9.204;2022-12-11T08:49:34;30.70;;;15.57;;
49502;SDS011;35409;48.776;9.204;2022-12-11T08:52:01;28.63;;;15.38;;
49502;SDS011;35409;48.776;9.204;2022-12-11T08:54:27;23.77;;;13.90;;
49502;SDS011;35409;48.776;9.204;2022-12-11T08:56:53;25.35;;;14.88;;
49502;SDS011;35409;48.776;9.204;2022-12-11T08:59:18;21.52;;;12.77;;
49502;SDS011;35409;48.776;9.204;2022-12-11T09:01:44;26.63;;;13.90;;
49502;SDS011;35409;48.776;9.204;2022-12-11T09:04:10;26.55;;;14.35;;
49502;SDS011;35409;48.776;9.204;2022-12-11T09:06:35;25.10;;;13.50;;
49502;SDS011;35409;48.776;9.204;2022-12-11T09:09:01;24.63;;;14.10;;
49502;SDS011;35409;48.776;9.204;2022-12-11T09:11:30;24.33;;;13.38;;
49502;SDS011;35409;48.776;9.204;2022-12-11T09:13:57;25.38;;;13.50;;
49502;SDS011;35409;48.776;9.204;2022-12-11T09:16:23;25.80;;;14.07;;
49502;SDS011;35409;48.776;9.204;2022-12-11T09:18:50;23.00;;;13.35;;
49502;SDS011;35409;48.776;9.204;2022-12-11T09:21:19;26.27;;;15.05;;
49502;SDS011;35409;48.776;9.204;2022-12-11T09:23:46;28.35;;;15.10;;
49502;SDS011;35409;48.776;9.204;2022-12-11T09:26:13;25.88;;;14.73;;
49502;SDS011;35409;48.776;9.204;2022-12-11T09:28:41;22.98;;;13.82;;
49502;SDS011;35409;48.776;9.204;2022-12-11T09:31:11;25.73;;;15.65;;
49502;SDS011;35409;48.776;9.204;2022-12-11T09:33:41;31.55;;;17.17;;
49502;SDS011;35409;48.776;9.204;2022-12-11T09:36:07;28.17;;;17.10;;
49502;SDS011;35409;48.776;9.204;2022-12-11T09:38:33;29.83;;;17.25;;
49502;SDS011;35409;48.776;9.204;2022-12-11T09:41:00;29.45;;;17.15;;
49502;SDS011;35409;48.776;9.204;2022-12-11T09:45:55;29.42;;;16.52;;
49502;SDS011;35409;48.776;9.204;2022-12-11T09:48:22;29.10;;;16.42;;
49502;SDS011;35409;48.776;9.204;2022-12-11T09:50:50;29.30;;;16.23;;
49502;SDS011;35409;48.776;9.204;2022-12-11T09:53:24;30.10;;;15.73;;
49502;SDS011;35409;48.776;9.204;2022-12-11T09:56:04;26.45;;;15.95;;
49502;SDS011;35409;48.776;9.204;2022-12-11T10:01:30;26.30;;;15.57;;
49502;SDS011;35409;48.776;9.204;2022-12-11T10:04:31;25.00;;;14.85;;
49502;SDS011;35409;48.776;9.204;2022-12-11T10:09:54;24.45;;;14.00;;
49502;SDS011;35409;48.776;9.204;2022-12-11T10:17:49;26.17;;;15.93;;
49502;SDS011;35409;48.776;9.204;2022-12-11T10:20:21;26.75;;;15.45;;
49502;SDS011;35409;48.776;9.204;2022-12-11T10:22:55;28.38;;;16.20;;
49502;SDS011;35409;48.776;9.204;2022-12-11T10:25:32;30.05;;;16.85;;
49502;SDS011;35409;48.776;9.204;2022-12-11T10:28:11;27.83;;;16.30;;
49502;SDS011;35409;48.776;9.204;2022-12-11T10:30:38;33.75;;;18.75;;
49502;SDS011;35409;48.776;9.204;2022-12-11T10:36:07;30.40;;;16.58;;
49502;SDS011;35409;48.776;9.204;2022-12-11T10:38:37;28.88;;;16.88;;
49502;SDS011;35409;48.776;9.204;2022-12-11T10:41:13;29.92;;;17.25;;
49502;SDS011;35409;48.776;9.204;2022-12-11T10:43:43;28.05;;;16.92;;
49502;SDS011;35409;48.776;9.204;2022-12-11T10:51:20;29.60;;;16.63;;
49502;SDS011;35409;48.776;9.204;2022-12-11T10:56:48;30.08;;;16.60;;
49502;SDS011;35409;48.776;9.204;2022-12-11T10:59:20;28.08;;;16.70;;
49502;SDS011;35409;48.776;9.204;2022-12-11T11:01:49;30.13;;;16.13;;
49502;SDS011;35409;48.776;9.204;2022-12-11T11:04:19;29.85;;;17.38;;
49502;SDS011;35409;48.776;9.204;2022-12-11T11:07:10;26.27;;;15.35;;
49502;SDS011;35409;48.776;9.204;2022-12-11T11:09:38;28.17;;;16.35;;
49502;SDS011;35409;48.776;9.204;2022-12-11T11:12:26;29.15;;;17.67;;
49502;SDS011;35409;48.776;9.204;2022-12-11T11:14:58;27.33;;;16.85;;
49502;SDS011;35409;48.776;9.204;2022-12-11T11:17:25;28.80;;;16.83;;
49502;SDS011;35409;48.776;9.204;2022-12-11T11:19:51;28.48;;;16.98;;
49502;SDS011;35409;48.776;9.204;2022-12-11T11:22:17;28.40;;;16.55;;
49502;SDS011;35409;48.776;9.204;2022-12-11T11:24:54;26.73;;;16.02;;
49502;SDS011;35409;48.776;9.204;2022-12-11T11:30:17;26.80;;;14.75;;
49502;SDS011;35409;48.776;9.204;2022-12-11T11:32:52;23.98;;;14.70;;
49502;SDS011;35409;48.776;9.204;2022-12-11T11:35:24;30.25;;;17.98;;
49502;SDS011;35409;48.776;9.204;2022-12-11T11:40:29;30.65;;;17.20;;
49502;SDS011;35409;48.776;9.204;2022-12-11T11:43:35;28.13;;;17.08;;
49502;SDS011;35409;48.776;9.204;2022-12-11T11:46:13;30.88;;;17.05;;
49502;SDS011;35409;48.776;9.204;2022-12-11T11:48:43;29.17;;;16.38;;
49502;SDS011;35409;48.776;9.204;2022-12-11T11:51:32;30.75;;;17.17;;
49502;SDS011;35409;48.776;9.204;2022-12-11T11:54:02;29.38;;;17.08;;
49502;SDS011;35409;48.776;9.204;2022-12-11T11:56:50;29.40;;;17.05;;
49502;SDS011;35409;48.776;9.204;2022-12-11T11:59:20;28.67;;;16.48;;
49502;SDS011;35409;48.776;9.204;2022-12-11T12:02:00;31.63;;;17.48;;
49502;SDS011;35409;48.776;9.204;2022-12-11T12:04:34;28.17;;;16.10;;
49502;SDS011;35409;48.776;9.204;2022-12-11T12:12:52;29.77;;;16.85;;
49502;SDS011;35409;48.776;9.204;2022-12-11T12:21:01;28.73;;;16.90;;
49502;SDS011;35409;48.776;9.204;2022-12-11T12:26:13;27.77;;;15.52;;
49502;SDS011;35409;48.776;9.204;2022-12-11T12:32:27;26.73;;;15.52;;
49502;SDS011;35409;48.776;9.204;2022-12-11T12:37:57;27.85;;;15.60;;
49502;SDS011;35409;48.776;9.204;2022-12-11T12:48:00;34.20;;;18.67;;
49502;SDS011;35409;48.776;9.204;2022-12-11T12:50:28;33.47;;;18.58;;
49502;SDS011;35409;48.776;9.204;2022-12-11T12:53:03;32.15;;;17.83;;
49502;SDS011;35409;48.776;9.204;2022-12-11T12:55:30;34.15;;;18.33;;
49502;SDS011;35409;48.776;9.204;2022-12-11T12:57:58;32.45;;;17.45;;
49502;SDS011;35409;48.776;9.204;2022-12-11T13:00:33;33.20;;;18.77;;
49502;SDS011;35409;48.776;9.204;2022-12-11T13:03:31;30.52;;;17.27;;
49502;SDS011;35409;48.776;9.204;2022-12-11T13:06:02;36.58;;;19.50;;
49502;SDS011;35409;48.776;9.204;2022-12-11T13:08:41;30.58;;;17.65;;
49502;SDS011;35409;48.776;9.204;2022-12-11T13:11:15;32.50;;;18.63;;
49502;SDS011;35409;48.776;9.204;2022-12-11T13:13:43;28.95;;;16.75;;
49502;SDS011;35409;48.776;9.204;2022-12-11T13:18:40;27.52;;;16.48;;
49502;SDS011;35409;48.776;9.204;2022-12-11T13:23:51;31.33;;;16.83;;
49502;SDS011;35409;48.776;9.204;2022-12-11T13:26:27;34.20;;;17.38;;
49502;SDS011;35409;48.776;9.204;2022-12-11T13:28:54;36.83;;;17.92;;
49502;SDS011;35409;48.776;9.204;2022-12-11T13:31:25;34.75;;;18.00;;
49502;SDS011;35409;48.776;9.204;2022-12-11T13:33:56;38.05;;;19.33;;
49502;SDS011;35409;48.776;9.204;2022-12-11T13:36:31;37.20;;;20.23;;
49502;SDS011;35409;48.776;9.204;2022-12-11T13:39:01;36.17;;;18.02;;
49502;SDS011;35409;48.776;9.204;2022-12-11T13:41:27;36.47;;;19.45;;
49502;SDS011;35409;48.776;9.204;2022-12-11T13:43:56;34.67;;;17.57;;
49502;SDS011;35409;48.776;9.204;2022-12-11T13:46:30;34.60;;;18.63;;
49502;SDS011;35409;48.776;9.204;2022-12-11T13:49:06;39.17;;;21.08;;
49502;SDS011;35409;48.776;9.204;2022-12-11T13:51:49;44.17;;;23.27;;
49502;SDS011;35409;48.776;9.204;2022-12-11T13:54:17;38.08;;;20.90;;
49502;SDS011;35409;48.776;9.204;2022-12-11T13:56:57;40.95;;;21.90;;
49502;SDS011;35409;48.776;9.204;2022-12-11T13:59:32;42.80;;;22.80;;
49502;SDS011;35409;48.776;9.204;2022-12-11T14:02:04;41.05;;;21.73;;
49502;SDS011;35409;48.776;9.204;2022-12-11T14:04:48;41.60;;;21.30;;
49502;SDS011;35409;48.776;9.204;2022-12-11T14:07:16;43.75;;;22.20;;
49502;SDS011;35409;48.776;9.204;2022-12-11T14:09:48;44.80;;;21.75;;
49502;SDS011;35409;48.776;9.204;2022-12-11T14:12:15;43.88;;;22.80;;
49502;SDS011;35409;48.776;9.204;2022-12-11T14:14:53;44.10;;;22.42;;
49502;SDS011;35409;48.776;9.204;2022-12-11T14:17:28;43.58;;;21.60;;
49502;SDS011;35409;48.776;9.204;2022-12-11T14:19:56;46.30;;;22.55;;
49502;SDS011;35409;48.776;9.204;2022-12-11T14:22:25;43.17;;;22.13;;
49502;SDS011;35409;48.776;9.204;2022-12-11T14:24:59;45.13;;;23.25;;
49502;SDS011;35409;48.776;9.204;2022-12-11T14:27:27;49.97;;;24.73;;
49502;SDS011;35409;48.776;9.204;2022-12-11T14:29:54;46.88;;;23.52;;
49502;SDS011;35409;48.776;9.204;2022-12-11T14:32:41;47.28;;;24.48;;
49502;SDS011;35409;48.776;9.204;2022-12-11T14:35:11;46.05;;;23.40;;
49502;SDS011;35409;48.776;9.204;2022-12-11T14:37:54;46.35;;;23.15;;
49502;SDS011;35409;48.776;9.204;2022-12-11T14:40:29;43.80;;;21.17;;
49502;SDS011;35409;48.776;9.204;2022-12-11T14:43:01;43.92;;;21.88;;
49502;SDS011;35409;48.776;9.204;2022-12-11T14:45:38;45.58;;;22.10;;
49502;SDS011;35409;48.776;9.204;2022-12-11T14:48:16;44.90;;;21.23;;
49502;SDS011;35409;48.776;9.204;2022-12-11T14:53:15;49.05;;;22.13;;
49502;SDS011;35409;48.776;9.204;2022-12-11T14:55:47;50.05;;;22.77;;
49502;SDS011;35409;48.776;9.204;2022-12-11T14:58:15;47.22;;;22.13;;
49502;SDS011;35409;48.776;9.204;2022-12-11T15:00:42;45.63;;;22.50;;
49502;SDS011;35409;48.776;9.204;2022-12-11T15:05:46;47.45;;;22.85;;
49502;SDS011;35409;48.776;9.204;2022-12-11T15:08:17;43.25;;;21.75;;
49502;SDS011;35409;48.776;9.204;2022-12-11T15:11:03;46.05;;;22.63;;
49502;SDS011;35409;48.776;9.204;2022-12-11T15:13:33;49.15;;;23.10;;
49502;SDS011;35409;48.776;9.204;2022-12-11T15:16:03;52.22;;;23.35;;
49502;SDS011;35409;48.776;9.204;2022-12-11T15:20:59;49.63;;;24.08;;
49502;SDS011;35409;48.776;9.204;2022-12-11T15:23:27;49.20;;;23.63;;
49502;SDS011;35409;48.776;9.204;2022-12-11T15:25:57;48.20;;;23.15;;
49502;SDS011;35409;48.776;9.204;2022-12-11T15:28:34;44.17;;;22.38;;
49502;SDS011;35409;48.776;9.204;2022-12-11T15:31:04;43.63;;;22.17;;
49502;SDS011;35409;48.776;9.204;2022-12-11T15:33:31;50.13;;;23.80;;
49502;SDS011;35409;48.776;9.204;2022-12-11T15:35:58;53.30;;;23.95;;
49502;SDS011;35409;48.776;9.204;2022-12-11T15:38:32;52.13;;;24.58;;
49502;SDS011;35409;48.776;9.204;2022-12-11T15:43:31;40.92;;;20.55;;
49502;SDS011;35409;48.776;9.204;2022-12-11T15:46:00;49.67;;;21.73;;
49502;SDS011;35409;48.776;9.204;2022-12-11T15:48:26;50.50;;;23.05;;
49502;SDS011;35409;48.776;9.204;2022-12-11T15:50:52;47.13;;;23.10;;
49502;SDS011;35409;48.776;9.204;2022-12-11T15:53:18;43.28;;;22.42;;
49502;SDS011;35409;48.776;9.204;2022-12-11T15:55:43;50.03;;;22.95;;
49502;SDS011;35409;48.776;9.204;2022-12-11T15:58:12;45.50;;;23.13;;
49502;SDS011;35409;48.776;9.204;2022-12-11T16:00:41;42.60;;;20.90;;
49502;SDS011;35409;48.776;9.204;2022-12-11T16:03:11;47.38;;;23.17;;
49502;SDS011;35409;48.776;9.204;2022-12-11T16:05:42;50.13;;;22.65;;
49502;SDS011;35409;48.776;9.204;2022-12-11T16:08:09;48.85;;;22.90;;
49502;SDS011;35409;48.776;9.204;2022-12-11T16:10:41;48.95;;;22.75;;
49502;SDS011;35409;48.776;9.204;2022-12-11T16:13:08;47.13;;;23.35;;
49502;SDS011;35409;48.776;9.204;2022-12-11T16:15:35;53.47;;;26.08;;
49502;SDS011;35409;48.776;9.204;2022-12-11T16:18:04;56.72;;;27.88;;